Time;durP1;ratioP1;P1;durP2;ratioP2;P2;SDS_P1;SDS_P2;PMS_P1;PMS_P2;Temp;Humidity;BMP_temperature;BMP_pressure;BME280_temperature;BME280_humidity;BME280_pressure;Samples;Min_cycle;Max_cycle;Signal;HPM_P1;HPM_P2
2022/08/22 00:01:07;;;;;;;8.03;5.33;;;17.50;1.00;;;;;;5028666;28;20469;-83
2022/08/22 00:03:45;;;;;;;9.17;4.77;;;17.50;1.00;;;;;;5034343;28;20421;-84
2022/08/22 00:06:19;;;;;;;9.33;5.77;;;17.50;1.00;;;;;;5031750;28;24137;-83
2022/08/22 00:08:57;;;;;;;7.93;4.57;;;17.50;1.00;;;;;;5036367;28;20432;-84
2022/08/22 00:11:36;;;;;;;7.93;5.13;;;17.50;1.00;;;;;;5032453;28;20497;-84
2022/08/22 00:14:17;;;;;;;8.90;4.07;;;17.50;1.00;;;;;;5030562;28;20527;-84
2022/08/22 00:16:53;;;;;;;8.17;4.80;;;17.50;1.00;;;;;;5028883;28;20440;-84
2022/08/22 00:19:28;;;;;;;7.07;4.30;;;17.50;1.00;;;;;;5028321;28;20487;-81
2022/08/22 00:22:04;;;;;;;6.77;4.33;;;17.40;1.00;;;;;;5029544;28;20475;-84
2022/08/22 00:24:37;;;;;;;9.57;5.80;;;17.40;1.00;;;;;;5028708;28;20426;-82
2022/08/22 00:27:10;;;;;;;6.67;4.10;;;17.30;1.00;;;;;;5026308;28;20457;-80
2022/08/22 00:29:43;;;;;;;8.73;4.60;;;17.20;1.00;;;;;;5029409;28;20449;-82
2022/08/22 00:32:18;;;;;;;8.70;4.50;;;17.20;1.00;;;;;;5030259;28;20911;-83
2022/08/22 00:34:54;;;;;;;7.20;4.00;;;17.10;1.00;;;;;;5026691;28;20988;-78
2022/08/22 00:37:25;;;;;;;7.80;4.07;;;17.00;1.00;;;;;;5027359;28;20503;-79
2022/08/22 00:40:00;;;;;;;9.50;4.50;;;17.00;1.00;;;;;;5023381;28;20462;-78
2022/08/22 00:43:03;;;;;;;7.63;4.27;;;17.00;1.00;;;;;;5027211;28;20555;-78
2022/08/22 00:45:58;;;;;;;8.03;4.43;;;17.00;1.00;;;;;;5029086;28;20548;-78
2022/08/22 00:48:50;;;;;;;6.27;3.63;;;17.00;1.00;;;;;;5030293;28;21000;-84
2022/08/22 00:52:07;;;;;;;10.83;7.03;;;17.00;1.00;;;;;;5019339;28;20457;-84
2022/08/22 00:54:48;;;;;;;7.60;4.67;;;17.00;1.00;;;;;;5028150;28;21048;-84
2022/08/22 00:57:32;;;;;;;9.90;5.30;;;17.10;1.00;;;;;;5028366;28;21070;-84
2022/08/22 01:00:12;;;;;;;7.27;3.90;;;17.00;1.00;;;;;;5031657;28;20889;-84
2022/08/22 01:03:10;;;;;;;8.37;4.70;;;17.00;1.00;;;;;;5032306;28;20468;-84
2022/08/22 01:05:53;;;;;;;11.57;4.70;;;17.00;1.00;;;;;;5000684;28;20465;-84
2022/08/22 01:08:35;;;;;;;7.93;4.70;;;16.90;1.00;;;;;;5032285;28;20465;-84
2022/08/22 01:11:27;;;;;;;8.93;4.30;;;16.80;1.00;;;;;;5028561;28;21066;-83
2022/08/22 01:14:11;;;;;;;8.23;4.03;;;16.80;1.00;;;;;;5033713;28;20536;-83
2022/08/22 01:17:11;;;;;;;8.07;4.33;;;16.80;1.00;;;;;;5031824;28;20540;-84
2022/08/22 01:20:12;;;;;;;8.40;4.10;;;16.70;1.00;;;;;;5029444;28;20556;-83
2022/08/22 01:23:16;;;;;;;8.80;4.13;;;16.70;1.00;;;;;;5034811;28;20480;-84
2022/08/22 01:26:38;;;;;;;8.33;5.00;;;16.80;1.00;;;;;;5036784;28;20464;-84
2022/08/22 01:29:58;;;;;;;10.70;4.77;;;16.80;1.00;;;;;;5027359;28;20462;-84
2022/08/22 01:33:01;;;;;;;7.40;4.27;;;16.70;1.00;;;;;;4997313;28;20449;-83
2022/08/22 01:36:03;;;;;;;9.70;4.63;;;16.70;1.00;;;;;;5028402;28;20460;-84
2022/08/22 01:38:52;;;;;;;7.90;4.63;;;16.70;1.00;;;;;;5029888;28;20449;-84
2022/08/22 01:41:47;;;;;;;8.50;4.77;;;16.70;1.00;;;;;;5027857;28;20460;-84
2022/08/22 01:44:27;;;;;;;7.47;4.00;;;16.60;1.00;;;;;;5035417;28;20452;-84
2022/08/22 01:47:02;;;;;;;8.60;4.67;;;16.60;1.00;;;;;;5035197;28;20472;-82
2022/08/22 01:49:39;;;;;;;8.80;4.50;;;16.60;1.00;;;;;;5032260;28;20458;-84
2022/08/22 01:52:12;;;;;;;8.70;4.90;;;16.60;1.00;;;;;;5028268;28;20611;-84
2022/08/22 01:54:47;;;;;;;8.30;4.20;;;16.60;1.00;;;;;;5033781;28;20466;-84
2022/08/22 01:57:16;;;;;;;9.67;5.17;;;16.60;1.00;;;;;;5029760;28;20985;-84
2022/08/22 01:59:46;;;;;;;7.10;4.03;;;16.60;1.00;;;;;;5028098;28;20454;-84
2022/08/22 02:02:30;;;;;;;8.10;4.90;;;16.60;1.00;;;;;;5031695;28;20873;-84
2022/08/22 02:05:06;;;;;;;7.13;4.60;;;16.60;1.00;;;;;;5030353;28;20488;-83
2022/08/22 02:07:51;;;;;;;8.93;4.90;;;16.50;1.00;;;;;;5033147;28;20455;-83
2022/08/22 02:10:26;;;;;;;7.57;4.67;;;16.50;1.00;;;;;;5030212;28;21214;-83
2022/08/22 02:13:03;;;;;;;7.87;4.73;;;16.50;1.00;;;;;;5027513;28;20472;-83
2022/08/22 02:15:44;;;;;;;8.70;4.90;;;16.50;1.00;;;;;;5028931;28;20469;-82
2022/08/22 02:18:17;;;;;;;10.90;5.07;;;16.40;1.00;;;;;;5029526;28;20474;-84
2022/08/22 02:21:02;;;;;;;7.80;4.13;;;16.40;1.00;;;;;;5031947;28;21003;-83
2022/08/22 02:23:46;;;;;;;9.80;5.80;;;16.40;1.00;;;;;;5030712;28;20454;-83
2022/08/22 02:26:20;;;;;;;7.57;4.20;;;16.40;1.00;;;;;;5029215;28;20564;-82
2022/08/22 02:28:56;;;;;;;10.43;5.27;;;16.40;1.00;;;;;;5033982;28;20519;-82
2022/08/22 02:31:35;;;;;;;7.67;4.53;;;16.30;1.00;;;;;;5018653;28;20515;-83
2022/08/22 02:34:20;;;;;;;9.03;4.70;;;16.30;1.00;;;;;;5032230;28;20465;-82
2022/08/22 02:36:52;;;;;;;10.73;5.27;;;16.20;1.00;;;;;;5031751;28;20468;-81
2022/08/22 02:39:27;;;;;;;8.57;5.70;;;16.20;1.00;;;;;;5025206;28;20508;-82
2022/08/22 02:42:02;;;;;;;8.43;5.03;;;16.10;1.00;;;;;;5030349;28;20475;-81
2022/08/22 02:44:36;;;;;;;9.70;5.50;;;16.10;1.00;;;;;;5026084;28;20981;-82
2022/08/22 02:47:08;;;;;;;9.53;4.50;;;16.10;1.00;;;;;;5029728;28;20468;-81
2022/08/22 02:49:47;;;;;;;10.77;5.20;;;16.10;1.00;;;;;;5031785;28;20555;-84
2022/08/22 02:52:18;;;;;;;8.43;5.23;;;16.10;1.00;;;;;;5029492;28;20445;-83
2022/08/22 02:54:55;;;;;;;9.37;5.07;;;16.10;1.00;;;;;;5032416;28;20465;-83
2022/08/22 02:57:30;;;;;;;8.83;6.10;;;16.20;1.00;;;;;;5027531;28;20475;-82
2022/08/22 03:00:11;;;;;;;8.90;5.60;;;16.20;1.00;;;;;;5029661;28;20445;-83
2022/08/22 03:02:43;;;;;;;7.73;4.47;;;16.20;1.00;;;;;;5031724;28;20556;-83
2022/08/22 03:05:22;;;;;;;11.47;5.67;;;16.20;1.00;;;;;;5039510;28;20452;-82
2022/08/22 03:07:56;;;;;;;9.20;4.60;;;16.20;1.00;;;;;;5034758;28;21150;-83
2022/08/22 03:10:30;;;;;;;8.20;5.10;;;16.20;1.00;;;;;;5038032;28;20446;-84
2022/08/22 03:13:07;;;;;;;7.97;5.10;;;16.20;1.00;;;;;;5039360;28;20880;-83
2022/08/22 03:15:42;;;;;;;10.80;5.37;;;16.30;1.00;;;;;;5033683;28;20464;-83
2022/08/22 03:18:22;;;;;;;8.73;4.90;;;16.30;1.00;;;;;;5034358;28;25431;-82
2022/08/22 03:20:54;;;;;;;8.30;5.23;;;16.30;1.00;;;;;;5034753;28;20536;-82
2022/08/22 03:23:35;;;;;;;10.00;5.40;;;16.30;1.00;;;;;;5033489;28;20448;-83
2022/08/22 03:26:13;;;;;;;9.17;5.53;;;16.20;1.00;;;;;;5037133;28;20468;-80
2022/08/22 03:28:46;;;;;;;8.70;5.67;;;16.20;1.00;;;;;;5037658;28;21302;-81
2022/08/22 03:31:15;;;;;;;9.43;5.43;;;16.30;1.00;;;;;;5037816;28;20937;-82
2022/08/22 03:33:44;;;;;;;11.07;6.23;;;16.30;1.00;;;;;;5037253;28;20990;-84
2022/08/22 03:36:25;;;;;;;10.00;5.90;;;16.30;1.00;;;;;;5034679;28;20522;-83
2022/08/22 03:39:06;;;;;;;9.37;5.57;;;16.30;1.00;;;;;;5034680;28;20497;-83
2022/08/22 03:42:12;;;;;;;10.83;6.83;;;16.30;1.00;;;;;;5036155;28;20469;-83
2022/08/22 03:45:12;;;;;;;9.60;6.00;;;16.30;1.00;;;;;;5034338;28;20413;-84
2022/08/22 03:48:13;;;;;;;11.50;7.03;;;16.30;1.00;;;;;;5034949;28;20507;-83
2022/08/22 03:51:11;;;;;;;8.60;5.53;;;16.30;1.00;;;;;;5034873;28;20464;-84
2022/08/22 03:54:10;;;;;;;9.60;5.80;;;16.30;1.00;;;;;;5034361;28;20479;-83
2022/08/22 03:57:19;;;;;;;12.57;6.07;;;16.40;1.00;;;;;;5032983;28;20460;-83
2022/08/22 04:00:10;;;;;;;9.63;5.70;;;16.40;1.00;;;;;;5034464;28;20908;-84
2022/08/22 04:03:16;;;;;;;8.40;5.70;;;16.50;1.00;;;;;;5026768;28;20855;-81
2022/08/22 04:06:08;;;;;;;11.73;7.00;;;16.50;1.00;;;;;;5033112;28;20444;-83
2022/08/22 04:09:15;;;;;;;8.87;5.70;;;16.60;1.00;;;;;;5030506;28;20512;-83
2022/08/22 04:12:17;;;;;;;11.47;6.60;;;16.70;1.00;;;;;;5031073;28;20453;-83
2022/08/22 04:15:14;;;;;;;8.27;5.60;;;16.70;1.00;;;;;;4989078;28;20461;-83
2022/08/22 04:18:06;;;;;;;13.30;7.80;;;16.70;1.00;;;;;;5031459;28;20839;-83
2022/08/22 04:21:10;;;;;;;11.40;6.00;;;16.70;1.00;;;;;;5010430;28;20533;-83
2022/08/22 04:24:09;;;;;;;14.13;7.03;;;16.70;1.00;;;;;;5031058;28;20461;-83
2022/08/22 04:26:42;;;;;;;11.57;6.23;;;16.70;1.00;;;;;;5023677;28;20559;-82
2022/08/22 04:29:19;;;;;;;9.40;6.37;;;16.80;1.00;;;;;;5024242;28;20462;-86
2022/08/22 04:31:57;;;;;;;11.90;7.30;;;16.70;1.00;;;;;;5044948;28;20464;-85
2022/08/22 04:34:32;;;;;;;14.27;8.20;;;16.70;1.00;;;;;;5031981;28;21288;-82
2022/08/22 04:37:06;;;;;;;10.80;6.73;;;16.60;1.00;;;;;;5032537;28;20876;-82
2022/08/22 04:39:39;;;;;;;9.53;6.10;;;16.60;1.00;;;;;;5027655;28;20480;-82
2022/08/22 04:42:14;;;;;;;12.50;8.20;;;16.60;1.00;;;;;;5031223;28;20909;-81
2022/08/22 04:44:47;;;;;;;11.90;6.97;;;16.60;1.00;;;;;;5031345;28;20464;-83
2022/08/22 04:47:25;;;;;;;11.73;6.73;;;16.60;1.00;;;;;;5029744;28;21332;-83
2022/08/22 04:50:03;;;;;;;12.70;8.40;;;16.50;1.00;;;;;;5029205;28;20990;-84
2022/08/22 04:52:47;;;;;;;13.00;7.50;;;16.50;1.00;;;;;;5033529;28;20492;-85
2022/08/22 04:55:28;;;;;;;15.60;8.40;;;16.60;1.00;;;;;;5029124;28;20488;-84
2022/08/22 04:58:02;;;;;;;15.47;8.60;;;16.60;1.00;;;;;;5033168;28;20469;-86
2022/08/22 05:00:39;;;;;;;15.63;9.53;;;16.70;1.00;;;;;;5031386;28;20473;-82
2022/08/22 05:03:12;;;;;;;15.80;9.13;;;16.70;1.00;;;;;;5028120;28;20473;-79
2022/08/22 05:05:44;;;;;;;13.30;8.83;;;16.70;1.00;;;;;;5023937;28;20561;-81
2022/08/22 05:08:16;;;;;;;17.60;8.83;;;16.80;1.00;;;;;;5025537;28;20453;-81
2022/08/22 05:10:49;;;;;;;14.83;8.50;;;16.80;1.00;;;;;;5028262;28;20465;-82
2022/08/22 05:13:21;;;;;;;16.07;10.03;;;16.80;1.00;;;;;;5027664;28;20453;-81
2022/08/22 05:15:52;;;;;;;22.77;17.03;;;16.90;1.00;;;;;;5027027;28;20519;-80
2022/08/22 05:18:26;;;;;;;14.07;9.10;;;16.90;1.00;;;;;;5024987;28;20582;-80
2022/08/22 05:20:56;;;;;;;15.30;9.60;;;17.00;1.00;;;;;;5025545;28;20437;-81
2022/08/22 05:23:28;;;;;;;15.40;9.20;;;17.10;1.00;;;;;;5032553;28;20835;-82
2022/08/22 05:25:58;;;;;;;15.30;8.03;;;17.20;1.00;;;;;;5027309;28;20471;-83
2022/08/22 05:28:33;;;;;;;14.17;8.57;;;17.30;1.00;;;;;;5025866;28;20604;-80
2022/08/22 05:31:03;;;;;;;13.90;8.83;;;17.30;1.00;;;;;;5029765;28;20866;-82
2022/08/22 05:33:38;;;;;;;18.23;9.93;;;17.40;1.00;;;;;;5032008;28;20426;-83
2022/08/22 05:36:09;;;;;;;15.97;9.20;;;17.60;1.00;;;;;;5032590;28;20471;-82
2022/08/22 05:38:41;;;;;;;13.77;9.10;;;17.70;1.00;;;;;;5031188;28;20584;-82
2022/08/22 05:41:11;;;;;;;15.60;9.10;;;17.80;1.00;;;;;;5033459;28;20477;-82
2022/08/22 05:43:42;;;;;;;19.23;9.53;;;18.00;1.00;;;;;;5030848;28;20445;-82
2022/08/22 05:46:17;;;;;;;16.40;9.70;;;18.10;1.00;;;;;;5031875;28;20446;-82
2022/08/22 05:48:52;;;;;;;16.90;10.47;;;18.20;1.00;;;;;;5022472;28;20449;-81
2022/08/22 05:51:25;;;;;;;20.30;10.53;;;18.40;1.00;;;;;;5029268;28;20536;-82
2022/08/22 05:54:05;;;;;;;14.57;9.30;;;18.60;1.00;;;;;;5023945;28;21623;-84
2022/08/22 05:56:37;;;;;;;17.97;10.90;;;18.70;1.00;;;;;;5031530;28;20470;-79
2022/08/22 05:59:14;;;;;;;14.90;9.17;;;18.90;1.00;;;;;;5028784;28;20914;-82
2022/08/22 06:01:52;;;;;;;14.57;8.27;;;19.10;1.00;;;;;;5019129;28;20479;-82
2022/08/22 06:04:30;;;;;;;11.90;7.50;;;19.30;1.00;;;;;;5029131;28;20873;-83
2022/08/22 06:07:02;;;;;;;15.33;9.33;;;19.40;1.00;;;;;;5028789;28;20964;-83
2022/08/22 06:09:38;;;;;;;11.93;7.97;;;19.60;1.00;;;;;;5027309;28;20458;-81
2022/08/22 06:12:11;;;;;;;16.43;8.90;;;19.80;1.00;;;;;;5019917;28;20449;-82
2022/08/22 06:14:45;;;;;;;11.33;8.00;;;19.90;1.00;;;;;;5023480;28;20465;-82
2022/08/22 06:17:16;;;;;;;12.60;9.27;;;20.10;1.00;;;;;;5026275;28;20512;-82
2022/08/22 06:19:48;;;;;;;15.93;8.63;;;20.30;1.00;;;;;;5018980;28;20484;-84
2022/08/22 06:22:19;;;;;;;17.03;8.43;;;20.40;1.00;;;;;;5033258;28;20447;-80
2022/08/22 06:24:49;;;;;;;14.30;7.93;;;20.60;1.00;;;;;;5023865;28;20536;-80
2022/08/22 06:27:22;;;;;;;11.73;8.00;;;20.80;1.00;;;;;;5016066;28;20506;-81
2022/08/22 06:29:53;;;;;;;15.23;8.03;;;20.90;1.00;;;;;;5028158;28;20461;-80
2022/08/22 06:32:23;;;;;;;11.17;7.73;;;21.10;1.00;;;;;;5029275;28;21016;-80
2022/08/22 06:34:56;;;;;;;12.73;7.10;;;21.20;1.00;;;;;;5023257;28;20465;-79
2022/08/22 06:37:32;;;;;;;13.47;8.30;;;21.40;1.00;;;;;;5025304;28;20472;-77
2022/08/22 06:40:02;;;;;;;13.60;8.43;;;21.50;1.00;;;;;;5028136;28;20465;-77
2022/08/22 06:42:32;;;;;;;12.90;8.20;;;21.60;1.00;;;;;;5026642;28;20469;-78
2022/08/22 06:45:05;;;;;;;17.40;11.40;;;21.80;1.00;;;;;;5024443;28;20483;-77
2022/08/22 06:47:41;;;;;;;15.00;9.50;;;21.90;1.00;;;;;;5021896;28;20479;-78
2022/08/22 06:50:12;;;;;;;12.47;7.63;;;21.90;1.00;;;;;;5022886;28;20467;-77
2022/08/22 06:52:50;;;;;;;22.20;8.50;;;21.90;1.00;;;;;;5022975;28;20984;-78
2022/08/22 06:55:18;;;;;;;15.17;8.53;;;22.00;1.00;;;;;;5022494;28;20445;-79
2022/08/22 06:57:52;;;;;;;13.30;7.40;;;22.10;1.00;;;;;;5022756;28;20472;-78
2022/08/22 07:00:20;;;;;;;9.80;6.70;;;22.20;1.00;;;;;;5024949;28;20507;-79
2022/08/22 07:02:52;;;;;;;11.23;7.43;;;22.30;1.00;;;;;;5022533;28;21012;-79
2022/08/22 07:05:24;;;;;;;16.70;8.50;;;22.30;1.00;;;;;;5020699;28;20441;-79
2022/08/22 07:07:52;;;;;;;10.93;6.30;;;22.50;1.00;;;;;;5028305;28;21032;-82
2022/08/22 07:10:26;;;;;;;10.67;7.03;;;22.50;1.00;;;;;;5021377;28;20985;-83
2022/08/22 07:19:33;;;;;;;12.30;5.90;;;22.70;1.00;;;;;;4959030;28;20470;-81
2022/08/22 07:22:13;;;;;;;13.77;6.30;;;22.90;1.00;;;;;;4956662;28;20454;-82
2022/08/22 07:24:46;;;;;;;15.83;5.70;;;23.10;1.00;;;;;;4964501;28;20534;-82
2022/08/22 07:27:22;;;;;;;12.70;6.90;;;23.20;1.00;;;;;;5027947;28;20847;-84
2022/08/22 07:30:00;;;;;;;17.63;6.47;;;23.20;1.00;;;;;;5026551;28;20469;-82
2022/08/22 07:32:40;;;;;;;10.93;5.63;;;23.30;1.00;;;;;;5030854;28;20453;-83
2022/08/22 07:35:11;;;;;;;13.93;6.90;;;23.50;1.00;;;;;;5029027;28;20477;-83
2022/08/22 07:37:58;;;;;;;15.90;8.07;;;23.60;1.00;;;;;;5028707;28;20500;-84
2022/08/22 07:40:31;;;;;;;19.77;8.23;;;23.70;1.00;;;;;;5029458;28;20483;-82
2022/08/22 07:43:06;;;;;;;14.30;6.70;;;23.90;1.00;;;;;;5018470;28;20735;-82
2022/08/22 07:45:37;;;;;;;13.17;6.70;;;23.90;1.00;;;;;;5028512;28;20506;-82
2022/08/22 07:48:16;;;;;;;14.23;5.90;;;24.00;1.00;;;;;;5027713;28;20460;-80
2022/08/22 07:50:51;;;;;;;10.33;4.63;;;24.10;1.00;;;;;;5033599;28;20463;-82
2022/08/22 07:53:26;;;;;;;8.13;3.30;;;24.10;1.00;;;;;;5028782;28;20457;-82
2022/08/22 07:55:56;;;;;;;8.17;3.30;;;24.10;1.00;;;;;;5032310;28;20464;-81
2022/08/22 07:58:26;;;;;;;9.23;3.63;;;24.10;1.00;;;;;;5028457;28;20849;-83
2022/08/22 08:00:54;;;;;;;10.97;3.90;;;24.20;1.00;;;;;;5027536;28;20589;-83
2022/08/22 08:03:23;;;;;;;10.80;3.70;;;24.30;1.00;;;;;;5031298;28;20480;-82
2022/08/22 08:05:53;;;;;;;10.40;3.57;;;24.40;1.00;;;;;;5032893;28;20473;-82
2022/08/22 08:08:26;;;;;;;8.83;3.50;;;24.40;1.00;;;;;;5033750;28;20953;-84
2022/08/22 08:10:56;;;;;;;9.80;2.93;;;24.50;1.00;;;;;;5031935;28;20916;-83
2022/08/22 08:13:30;;;;;;;8.93;3.67;;;24.60;1.00;;;;;;5026755;28;20434;-82
2022/08/22 08:15:59;;;;;;;7.97;3.10;;;24.60;1.00;;;;;;5023856;28;20469;-83
2022/08/22 08:18:29;;;;;;;8.10;2.60;;;24.50;1.00;;;;;;5029799;28;20529;-83
2022/08/22 08:21:00;;;;;;;9.80;3.00;;;24.50;1.00;;;;;;5031230;28;20272;-83
2022/08/22 08:23:34;;;;;;;11.33;4.10;;;24.50;1.00;;;;;;5033197;28;20490;-84
2022/08/22 08:26:05;;;;;;;6.70;2.37;;;24.60;1.00;;;;;;5031845;28;20563;-84
2022/08/22 08:28:38;;;;;;;8.00;2.37;;;24.70;1.00;;;;;;5034930;28;20520;-85
2022/08/22 08:31:12;;;;;;;8.70;3.13;;;24.80;1.00;;;;;;5028245;28;20436;-85
2022/08/22 08:33:43;;;;;;;9.87;3.20;;;24.90;1.00;;;;;;5030813;28;20465;-86
2022/08/22 08:36:36;;;;;;;7.10;2.77;;;24.90;1.00;;;;;;5032517;28;20475;-84
2022/08/22 08:39:14;;;;;;;9.23;3.20;;;24.90;1.00;;;;;;5029770;28;20505;-85
2022/08/22 08:42:29;;;;;;;7.80;2.60;;;25.00;1.00;;;;;;5031328;28;20439;-84
2022/08/22 08:45:09;;;;;;;8.33;3.57;;;25.00;1.00;;;;;;4953657;28;20517;-84
2022/08/22 08:47:50;;;;;;;8.60;4.03;;;24.90;1.00;;;;;;5022742;28;20473;-85
2022/08/22 08:50:30;;;;;;;8.33;2.80;;;25.00;1.00;;;;;;5028717;28;20580;-84
2022/08/22 08:53:17;;;;;;;7.93;2.73;;;25.20;1.00;;;;;;5025657;28;20541;-84
2022/08/22 08:55:51;;;;;;;8.63;2.83;;;25.30;1.00;;;;;;5024462;28;20574;-81
2022/08/22 08:58:32;;;;;;;8.13;3.03;;;25.40;1.00;;;;;;5028286;28;20543;-82
2022/08/22 09:01:11;;;;;;;8.30;3.17;;;25.50;1.00;;;;;;5024273;28;20477;-84
2022/08/22 09:04:10;;;;;;;10.23;3.10;;;25.40;1.00;;;;;;5026295;28;22310;-84
2022/08/22 09:06:55;;;;;;;6.90;2.73;;;25.60;1.00;;;;;;5025612;28;20457;-84
2022/08/22 09:09:36;;;;;;;7.37;2.53;;;25.60;1.00;;;;;;5024200;28;20488;-85
2022/08/22 09:12:35;;;;;;;8.73;3.23;;;25.60;1.00;;;;;;5012627;28;20473;-84
2022/08/22 09:15:20;;;;;;;8.33;2.57;;;25.70;1.00;;;;;;5022792;28;20475;-84
2022/08/22 09:18:25;;;;;;;7.37;3.13;;;25.80;1.00;;;;;;5019890;28;20452;-84
2022/08/22 09:21:22;;;;;;;7.00;2.40;;;26.10;1.00;;;;;;5022485;28;20606;-84
2022/08/22 09:24:38;;;;;;;10.40;2.97;;;26.00;1.00;;;;;;5029456;28;21312;-85
2022/08/22 09:27:10;;;;;;;6.60;2.60;;;25.80;1.00;;;;;;4946730;28;20465;-84
2022/08/22 09:29:43;;;;;;;7.57;2.83;;;25.90;1.00;;;;;;5011147;28;20543;-83
2022/08/22 09:32:17;;;;;;;7.83;2.70;;;26.10;1.00;;;;;;5013416;28;20922;-85
2022/08/22 09:34:57;;;;;;;11.80;3.37;;;25.80;1.00;;;;;;5029826;28;20453;-83
2022/08/22 09:37:38;;;;;;;9.37;3.73;;;26.10;1.00;;;;;;5020866;28;20459;-83
2022/08/22 09:40:14;;;;;;;7.17;3.23;;;26.40;1.00;;;;;;5035493;28;20460;-82
2022/08/22 09:42:50;;;;;;;8.90;3.00;;;26.60;1.00;;;;;;5025867;28;20481;-83
2022/08/22 09:45:37;;;;;;;8.37;3.30;;;26.70;1.00;;;;;;5025446;28;21026;-81
2022/08/22 09:48:12;;;;;;;7.30;2.57;;;26.60;1.00;;;;;;5025329;28;20595;-83
2022/08/22 09:50:48;;;;;;;7.00;2.50;;;26.80;1.00;;;;;;5029046;28;20461;-84
2022/08/22 09:53:34;;;;;;;7.67;2.43;;;27.10;1.00;;;;;;5023803;28;20884;-83
2022/08/22 09:56:07;;;;;;;8.30;3.23;;;27.60;1.00;;;;;;5026546;28;20471;-83
2022/08/22 09:58:43;;;;;;;9.40;3.77;;;27.80;1.00;;;;;;5030628;28;20501;-83
2022/08/22 10:01:25;;;;;;;8.50;2.87;;;28.50;1.00;;;;;;5026627;28;20449;-81
2022/08/22 10:04:41;;;;;;;8.80;3.37;;;28.90;1.00;;;;;;5027151;28;20472;-82
2022/08/22 10:07:32;;;;;;;7.83;2.77;;;29.70;1.00;;;;;;4965660;28;21471;-84
2022/08/22 10:10:06;;;;;;;7.50;2.40;;;29.60;1.00;;;;;;5020819;28;20492;-82
2022/08/22 10:12:41;;;;;;;9.30;3.43;;;29.70;1.00;;;;;;5016103;28;21705;-82
2022/08/22 10:15:16;;;;;;;6.47;2.20;;;29.60;1.00;;;;;;5022082;28;20472;-83
2022/08/22 10:17:59;;;;;;;8.23;2.63;;;29.60;1.00;;;;;;5027317;28;21212;-83
2022/08/22 10:20:34;;;;;;;6.77;2.67;;;29.70;1.00;;;;;;5025259;28;20465;-83
2022/08/22 10:23:16;;;;;;;7.53;2.47;;;29.50;1.00;;;;;;5023939;28;20458;-81
2022/08/22 10:25:48;;;;;;;7.03;2.90;;;29.20;1.00;;;;;;5023060;28;20479;-83
2022/08/22 10:28:27;;;;;;;7.30;2.93;;;29.50;1.00;;;;;;5024216;28;20469;-82
2022/08/22 10:31:23;;;;;;;7.37;2.83;;;30.30;1.00;;;;;;5024173;28;20469;-82
2022/08/22 10:34:01;;;;;;;6.00;2.10;;;30.50;1.00;;;;;;5030933;28;20410;-82
2022/08/22 10:36:35;;;;;;;8.90;2.47;;;30.80;1.00;;;;;;5011291;28;20461;-82
2022/08/22 10:39:15;;;;;;;7.40;3.13;;;31.20;1.00;;;;;;5028144;28;21136;-82
2022/08/22 10:42:05;;;;;;;9.23;3.90;;;31.30;1.00;;;;;;5028493;28;20661;-85
2022/08/22 10:44:41;;;;;;;7.80;2.80;;;31.90;1.00;;;;;;5029878;28;21163;-83
2022/08/22 10:47:14;;;;;;;8.07;2.50;;;32.90;1.00;;;;;;5022458;28;20480;-83
2022/08/22 10:49:50;;;;;;;7.77;2.60;;;33.50;1.00;;;;;;5024206;28;20988;-83
2022/08/22 10:52:22;;;;;;;7.87;2.43;;;34.40;1.00;;;;;;5024871;28;21523;-83
2022/08/22 10:54:52;;;;;;;8.13;2.03;;;34.00;1.00;;;;;;5028775;28;20485;-81
2022/08/22 10:57:41;;;;;;;5.80;2.00;;;33.20;1.00;;;;;;5022067;28;20535;-84
2022/08/22 11:00:15;;;;;;;8.77;3.10;;;32.60;1.00;;;;;;5019897;28;20477;-83
2022/08/22 11:03:00;;;;;;;8.30;2.93;;;32.20;1.00;;;;;;5024421;28;20464;-82
2022/08/22 11:05:34;;;;;;;7.07;2.90;;;31.90;1.00;;;;;;5023707;28;20576;-82
2022/08/22 11:08:24;;;;;;;7.00;3.00;;;31.90;1.00;;;;;;5025386;28;20478;-83
2022/08/22 11:11:04;;;;;;;7.30;2.20;;;31.90;1.00;;;;;;5010395;28;20461;-83
2022/08/22 11:13:40;;;;;;;6.73;3.07;;;31.80;1.00;;;;;;5028073;28;20496;-85
2022/08/22 11:16:20;;;;;;;7.63;2.53;;;31.60;1.00;;;;;;5027565;28;20500;-87
2022/08/22 11:19:09;;;;;;;7.70;3.17;;;32.00;1.00;;;;;;5030717;28;20580;-84
2022/08/22 11:21:46;;;;;;;8.00;2.80;;;32.30;1.00;;;;;;5030823;28;20470;-85
2022/08/22 11:24:33;;;;;;;7.93;2.60;;;32.40;1.00;;;;;;5031388;28;20452;-84
2022/08/22 11:27:14;;;;;;;7.73;2.50;;;32.60;1.00;;;;;;5031288;28;20464;-83
2022/08/22 11:29:56;;;;;;;6.47;2.60;;;32.00;1.00;;;;;;5033320;28;20482;-85
2022/08/22 11:32:34;;;;;;;8.93;2.60;;;31.70;1.00;;;;;;5039276;28;20453;-81
2022/08/22 11:35:04;;;;;;;8.33;2.40;;;31.40;1.00;;;;;;5033881;28;20437;-83
2022/08/22 11:37:49;;;;;;;6.07;2.20;;;31.20;1.00;;;;;;5019047;28;20436;-83
2022/08/22 11:40:35;;;;;;;6.90;2.00;;;31.20;1.00;;;;;;5032819;28;20464;-83
2022/08/22 11:43:27;;;;;;;8.43;2.90;;;30.80;1.00;;;;;;5033893;28;20540;-84
2022/08/22 11:45:59;;;;;;;9.67;3.10;;;31.60;1.00;;;;;;5038464;28;20457;-83
2022/08/22 11:48:38;;;;;;;8.00;3.30;;;31.80;1.00;;;;;;5037492;28;20507;-85
2022/08/22 11:51:14;;;;;;;9.07;2.50;;;31.10;1.00;;;;;;5034795;28;20479;-83
2022/08/22 11:53:49;;;;;;;7.30;2.83;;;30.70;1.00;;;;;;5034313;28;20457;-84
2022/08/22 11:56:26;;;;;;;6.77;2.30;;;30.60;1.00;;;;;;5036056;28;20515;-82
2022/08/22 12:02:04;;;;;;;8.47;3.13;;;30.20;1.00;;;;;;5039103;28;20497;-81
2022/08/22 12:04:43;;;;;;;7.80;3.07;;;30.60;1.00;;;;;;5023526;28;20555;-82
2022/08/22 12:07:22;;;;;;;7.40;3.07;;;31.50;1.00;;;;;;5001173;28;20463;-82
2022/08/22 12:09:55;;;;;;;7.10;2.63;;;31.70;1.00;;;;;;5048454;28;20522;-82
2022/08/22 12:12:30;;;;;;;7.20;3.50;;;31.60;1.00;;;;;;5032237;28;20501;-84
2022/08/22 12:15:05;;;;;;;9.13;2.40;;;31.60;1.00;;;;;;5030215;28;20432;-88
2022/08/22 12:18:07;;;;;;;9.90;4.53;;;31.40;1.00;;;;;;5030182;28;20522;-84
2022/08/22 12:20:53;;;;;;;6.60;2.03;;;32.00;1.00;;;;;;5029636;28;20516;-86
2022/08/22 12:23:44;;;;;;;10.30;4.03;;;32.40;1.00;;;;;;5030723;28;20441;-85
2022/08/22 12:26:25;;;;;;;8.60;3.00;;;33.10;1.00;;;;;;5034292;28;20436;-84
2022/08/22 12:29:16;;;;;;;6.00;2.50;;;34.00;1.00;;;;;;5040619;28;20425;-85
2022/08/22 12:32:20;;;;;;;8.47;2.10;;;34.60;1.00;;;;;;5036811;28;20472;-87
2022/08/22 12:34:57;;;;;;;11.47;3.30;;;34.30;1.00;;;;;;5041750;28;20492;-87
2022/08/22 12:37:32;;;;;;;8.63;2.40;;;33.50;1.00;;;;;;5027247;28;20619;-88
2022/08/22 12:40:27;;;;;;;7.70;2.27;;;33.90;1.00;;;;;;5040915;28;20518;-88
2022/08/22 12:43:35;;;;;;;7.50;2.30;;;35.00;1.00;;;;;;5044251;28;21102;-83
2022/08/22 12:46:16;;;;;;;9.53;2.30;;;35.70;1.00;;;;;;5019630;28;20499;-87
2022/08/22 12:48:56;;;;;;;10.03;3.10;;;36.40;1.00;;;;;;5042039;28;20487;-88
2022/08/22 12:51:33;;;;;;;6.40;1.90;;;36.30;1.00;;;;;;5037162;28;20461;-88
2022/08/22 12:54:27;;;;;;;5.40;2.30;;;36.20;1.00;;;;;;5031807;28;20527;-87
2022/08/22 12:57:03;;;;;;;7.00;2.10;;;35.90;1.00;;;;;;5030791;28;20481;-86
2022/08/22 12:59:36;;;;;;;8.70;2.27;;;36.20;1.00;;;;;;5034000;28;20996;-85
2022/08/22 13:02:13;;;;;;;7.10;3.17;;;36.30;1.00;;;;;;5033928;28;20556;-87
2022/08/22 13:04:56;;;;;;;6.20;2.20;;;36.00;1.00;;;;;;5027356;28;20495;-82
2022/08/22 13:07:27;;;;;;;7.93;2.27;;;36.10;1.00;;;;;;5027014;28;20700;-85
2022/08/22 13:09:59;;;;;;;7.93;2.13;;;36.10;1.00;;;;;;5026615;28;20520;-86
2022/08/22 13:12:33;;;;;;;6.83;2.40;;;35.70;1.00;;;;;;5035262;28;20433;-85
2022/08/22 13:15:06;;;;;;;6.77;2.43;;;35.20;1.00;;;;;;5030963;28;20608;-86
2022/08/22 13:17:35;;;;;;;6.17;2.23;;;34.50;1.00;;;;;;5041477;28;20469;-87
2022/08/22 13:20:16;;;;;;;6.83;2.30;;;34.00;1.00;;;;;;5032490;28;20413;-87
2022/08/22 13:22:44;;;;;;;6.13;2.30;;;33.40;1.00;;;;;;5033868;28;20448;-86
2022/08/22 13:25:22;;;;;;;8.87;2.40;;;32.50;1.00;;;;;;5033027;28;20413;-84
2022/08/22 13:27:55;;;;;;;6.83;2.80;;;32.00;1.00;;;;;;5037544;28;20501;-87
2022/08/22 13:30:35;;;;;;;7.13;2.90;;;31.90;1.00;;;;;;5032954;28;20905;-87
2022/08/22 13:33:08;;;;;;;7.67;2.53;;;31.30;1.00;;;;;;5023253;28;20555;-87
2022/08/22 13:35:41;;;;;;;7.10;2.50;;;31.10;1.00;;;;;;5039381;28;20471;-86
2022/08/22 13:38:17;;;;;;;9.07;2.97;;;30.60;1.00;;;;;;5034488;28;20621;-85
2022/08/22 13:40:48;;;;;;;8.60;2.87;;;30.10;1.00;;;;;;5031465;28;21291;-85
2022/08/22 13:43:21;;;;;;;14.20;5.23;;;29.70;1.00;;;;;;5033249;28;20536;-85
2022/08/22 13:45:54;;;;;;;7.30;3.10;;;29.40;1.00;;;;;;5038479;28;20436;-86
2022/08/22 13:48:25;;;;;;;8.10;2.87;;;29.10;1.00;;;;;;5033427;28;20686;-87
2022/08/22 13:51:05;;;;;;;6.47;2.40;;;28.80;1.00;;;;;;5035007;28;20461;-85
2022/08/22 13:53:39;;;;;;;10.00;3.83;;;28.60;1.00;;;;;;5037472;28;20500;-86
2022/08/22 13:56:10;;;;;;;9.60;2.80;;;28.40;1.00;;;;;;5028698;28;20455;-86
2022/08/22 13:58:41;;;;;;;8.40;3.00;;;28.30;1.00;;;;;;5042225;28;20462;-85
2022/08/22 14:01:33;;;;;;;11.33;4.40;;;28.20;1.00;;;;;;5031988;28;20437;-82
2022/08/22 14:04:09;;;;;;;7.30;2.73;;;28.10;1.00;;;;;;5032906;28;20532;-85
2022/08/22 14:06:39;;;;;;;7.43;3.17;;;28.20;1.00;;;;;;5036037;28;20540;-84